Terminal Aerodrome Forecast
Issued by NWS

Home | Current Version | Previous Version | Text Only | Print | Product List | Glossary On
Versions: 1 2 3 4 5 6 7 8 9 10 11 12 13 14 15 16 17 18 19
000
FTAK31 PAJN 281100 AAA
TAFAGY
TAF AMD
PAGY 281146Z 2812/2912 VRB04KT 6SM -SHRA BR BKN020 OVC040
      TEMPO 2812/2815 4SM -SHRA BR OVC015
     FM281800 21011KT P6SM -SHRA SCT015 OVC025
     FM282100 21015G21KT P6SM -SHRA BKN025 OVC050
     FM290000 21018G25KT P6SM -SHRA OVC050
     FM290600 20015G21KT P6SM -SHRA BKN025 OVC050
     FM290900 21013G18KT P6SM VCSH OVC050
      AMD LTD TO CLD VIS AND WIND=

USA.gov is the U.S. government's official web portal to all federal, state and local government web resources and services.